createdAt,value
2019-01-09T00:00:09.920Z,8.37
2019-01-09T00:02:38.469Z,8.77
2019-01-09T00:05:07.311Z,11.27
2019-01-09T00:07:35.801Z,15.53
2019-01-09T00:10:05.146Z,15.37
2019-01-09T00:12:33.853Z,13.40
2019-01-09T00:15:04.361Z,12.40
2019-01-09T00:17:32.642Z,10.80
2019-01-09T00:20:01.365Z,13.43
2019-01-09T00:22:30.140Z,7.23
2019-01-09T00:24:58.796Z,8.90
2019-01-09T00:27:27.414Z,5.63
2019-01-09T00:29:55.936Z,5.27
2019-01-09T00:32:24.587Z,9.60
2019-01-09T00:34:53.235Z,8.27
2019-01-09T00:37:21.899Z,12.73
2019-01-09T00:39:50.577Z,14.73
2019-01-09T00:42:19.137Z,13.00
2019-01-09T00:44:47.700Z,12.47
2019-01-09T00:47:16.434Z,18.27
2019-01-09T00:49:45.010Z,20.17
2019-01-09T00:52:13.569Z,13.97
2019-01-09T00:54:42.199Z,16.13
2019-01-09T00:57:10.913Z,17.00
2019-01-09T00:59:39.469Z,17.97
2019-01-09T01:02:23.121Z,15.80
2019-01-09T01:05:10.953Z,14.87
2019-01-09T01:08:03.570Z,13.87
2019-01-09T01:10:49.892Z,13.53
2019-01-09T01:13:57.546Z,11.60
2019-01-09T01:16:45.601Z,10.67
2019-01-09T01:19:36.612Z,18.80
2019-01-09T01:22:10.945Z,10.87
2019-01-09T01:24:51.247Z,12.20
2019-01-09T01:27:25.569Z,19.17
2019-01-09T01:29:57.135Z,12.57
2019-01-09T01:32:49.810Z,20.33
2019-01-09T01:35:36.105Z,15.60
2019-01-09T01:38:22.586Z,11.33
2019-01-09T01:41:00.132Z,23.17
2019-01-09T01:43:34.556Z,16.47
2019-01-09T01:46:17.912Z,16.43
2019-01-09T01:49:07.318Z,16.50
2019-01-09T01:51:59.962Z,22.00
2019-01-09T01:54:37.127Z,17.70
2019-01-09T01:57:38.524Z,11.53
2019-01-09T02:00:29.127Z,13.00
2019-01-09T02:03:12.341Z,12.03
2019-01-09T02:05:43.932Z,13.63
2019-01-09T02:08:30.463Z,17.13
2019-01-09T02:11:24.401Z,13.93
2019-01-09T02:14:01.749Z,18.37
2019-01-09T02:16:39.209Z,22.93
2019-01-09T02:19:13.541Z,12.30
2019-01-09T02:21:50.692Z,13.80
2019-01-09T02:24:33.969Z,12.73
2019-01-09T02:27:08.121Z,15.87
2019-01-09T02:30:08.037Z,13.17
2019-01-09T02:32:36.609Z,13.17
2019-01-09T02:35:05.317Z,9.93
2019-01-09T02:37:33.887Z,14.90
2019-01-09T02:40:02.545Z,13.43
2019-01-09T02:42:31.037Z,17.23
2019-01-09T02:44:59.609Z,14.03
2019-01-09T02:47:28.191Z,18.97
2019-01-09T02:49:56.766Z,14.30
2019-01-09T02:52:25.323Z,19.23
2019-01-09T02:54:53.841Z,17.37
2019-01-09T02:57:24.552Z,13.57
2019-01-09T02:59:52.573Z,19.13
2019-01-09T03:02:21.066Z,19.00
2019-01-09T03:04:49.593Z,15.87
2019-01-09T03:07:18.158Z,15.93
2019-01-09T03:09:46.722Z,19.33
2019-01-09T03:12:15.304Z,16.70
2019-01-09T03:14:43.874Z,21.07
2019-01-09T03:17:12.390Z,13.93
2019-01-09T03:19:41.027Z,16.27
2019-01-09T03:22:09.613Z,12.57
2019-01-09T03:24:38.193Z,11.27
2019-01-09T03:27:06.705Z,12.67
2019-01-09T03:29:35.197Z,15.87
2019-01-09T03:32:03.921Z,16.50
2019-01-09T03:34:32.516Z,10.23
2019-01-09T03:37:01.085Z,18.07
2019-01-09T03:39:29.639Z,14.03
2019-01-09T03:41:58.240Z,20.30
2019-01-09T03:44:26.888Z,14.63
2019-01-09T03:46:55.469Z,7.67
2019-01-09T03:49:24.023Z,16.13
2019-01-09T03:51:52.548Z,14.97
2019-01-09T03:54:21.035Z,12.23
2019-01-09T03:56:49.620Z,12.17
2019-01-09T03:59:18.185Z,16.90
2019-01-09T04:01:46.771Z,14.87
2019-01-09T04:04:15.337Z,20.30
2019-01-09T04:06:43.852Z,18.97
2019-01-09T04:09:12.337Z,12.83
2019-01-09T04:11:40.927Z,20.27
2019-01-09T04:14:09.481Z,17.77
2019-01-09T04:16:38.059Z,17.47
2019-01-09T04:19:06.662Z,12.07
2019-01-09T04:21:35.229Z,13.77
2019-01-09T04:24:03.811Z,16.17
2019-01-09T04:26:32.379Z,12.87
2019-01-09T04:29:00.985Z,6.07
2019-01-09T04:31:29.469Z,9.07
2019-01-09T04:33:57.974Z,10.17
2019-01-09T04:36:26.534Z,10.57
2019-01-09T04:38:55.112Z,10.90
2019-01-09T04:41:23.697Z,6.60
2019-01-09T04:43:52.281Z,15.17
2019-01-09T04:46:20.850Z,14.30
2019-01-09T04:48:49.437Z,13.47
2019-01-09T04:51:18.003Z,13.17
2019-01-09T04:53:46.509Z,18.60
2019-01-09T04:56:15.023Z,15.93
2019-01-09T04:58:43.598Z,13.90
2019-01-09T05:01:12.235Z,17.93
2019-01-09T05:03:40.818Z,13.30
2019-01-09T05:06:09.306Z,14.83
2019-01-09T05:08:37.809Z,12.53
2019-01-09T05:11:06.302Z,14.60
2019-01-09T05:13:34.866Z,13.50
2019-01-09T05:16:03.461Z,13.93
2019-01-09T05:18:32.031Z,14.00
2019-01-09T05:21:00.609Z,12.67
2019-01-09T05:23:29.106Z,17.03
2019-01-09T05:25:57.723Z,11.77
2019-01-09T05:28:26.269Z,16.00
2019-01-09T05:30:54.790Z,16.63
2019-01-09T05:33:23.353Z,12.23
2019-01-09T05:35:51.883Z,13.20
2019-01-09T05:38:20.475Z,17.87
2019-01-09T05:40:49.068Z,16.97
2019-01-09T05:43:17.625Z,21.80
2019-01-09T05:45:46.129Z,20.53
2019-01-09T05:48:14.634Z,16.67
2019-01-09T05:50:43.265Z,17.47
2019-01-09T05:53:11.822Z,27.33
2019-01-09T05:55:40.421Z,19.80
2019-01-09T05:58:08.978Z,25.20
2019-01-09T06:00:37.503Z,27.43
2019-01-09T06:03:06.058Z,26.70
2019-01-09T06:05:34.641Z,24.80
2019-01-09T06:08:03.147Z,18.53
2019-01-09T06:10:31.670Z,27.37
2019-01-09T06:13:00.249Z,22.23
2019-01-09T06:15:28.889Z,18.77
2019-01-09T06:17:57.384Z,21.40
2019-01-09T06:20:25.962Z,24.87
2019-01-09T06:22:54.554Z,20.93
2019-01-09T06:25:23.054Z,24.77
2019-01-09T06:27:51.633Z,29.23
2019-01-09T06:30:20.210Z,30.33
2019-01-09T06:32:48.734Z,18.20
2019-01-09T06:35:17.305Z,24.17
2019-01-09T06:37:45.882Z,25.73
2019-01-09T06:40:14.437Z,22.77
2019-01-09T06:42:42.953Z,21.63
2019-01-09T06:45:11.518Z,19.93
2019-01-09T06:47:40.049Z,20.50
2019-01-09T06:50:11.666Z,26.07
2019-01-09T06:52:40.321Z,32.67
2019-01-09T06:55:08.907Z,19.83
2019-01-09T06:57:37.466Z,24.53
2019-01-09T07:00:09.078Z,22.70
2019-01-09T07:02:37.662Z,17.73
2019-01-09T07:05:06.654Z,23.97
2019-01-09T07:07:36.171Z,20.37
2019-01-09T07:10:06.879Z,24.80
2019-01-09T07:12:35.461Z,16.13
2019-01-09T07:15:11.298Z,21.77
2019-01-09T07:17:35.529Z,23.77
2019-01-09T07:20:04.230Z,19.37
2019-01-09T07:22:32.798Z,20.87
2019-01-09T07:25:01.386Z,18.40
2019-01-09T07:27:29.946Z,20.40
2019-01-09T07:29:59.568Z,21.63
2019-01-09T07:32:28.063Z,24.47
2019-01-09T07:34:56.575Z,22.43
2019-01-09T07:37:25.161Z,24.47
2019-01-09T07:39:53.743Z,19.03
2019-01-09T07:42:22.341Z,27.03
2019-01-09T07:44:50.917Z,18.97
2019-01-09T07:47:19.415Z,25.00
2019-01-09T07:49:48.010Z,22.63
2019-01-09T07:52:16.569Z,17.87
2019-01-09T07:54:45.163Z,14.50
2019-01-09T07:57:13.875Z,21.70
2019-01-09T07:59:42.595Z,17.23
2019-01-09T08:02:11.141Z,18.97
2019-01-09T08:04:39.649Z,15.07
2019-01-09T08:07:08.274Z,14.13
2019-01-09T08:09:36.870Z,14.00
2019-01-09T08:12:05.428Z,15.63
2019-01-09T08:14:34.001Z,19.33
2019-01-09T08:17:02.491Z,16.20
2019-01-09T08:19:31.065Z,14.60
2019-01-09T08:21:59.564Z,13.73
2019-01-09T08:24:28.131Z,15.60
2019-01-09T08:26:56.633Z,12.30
2019-01-09T08:29:25.127Z,15.53
2019-01-09T08:31:53.705Z,11.23
2019-01-09T08:34:22.198Z,14.97
2019-01-09T08:36:50.798Z,12.43
2019-01-09T08:39:19.334Z,10.87
2019-01-09T08:41:47.837Z,10.40
2019-01-09T08:44:16.328Z,16.97
2019-01-09T08:46:44.914Z,15.17
2019-01-09T08:49:13.410Z,13.20
2019-01-09T08:51:41.998Z,13.07
2019-01-09T08:54:10.556Z,11.97
2019-01-09T08:56:39.086Z,10.17
2019-01-09T08:59:07.574Z,9.70
2019-01-09T09:01:36.262Z,10.70
2019-01-09T09:04:04.945Z,9.10
2019-01-09T09:06:33.661Z,10.33
2019-01-09T09:09:02.308Z,8.83
2019-01-09T09:11:30.970Z,10.17
2019-01-09T09:13:59.538Z,6.17
2019-01-09T09:16:36.413Z,10.67
2019-01-09T09:18:58.275Z,10.20
2019-01-09T09:21:26.787Z,8.03
2019-01-09T09:23:55.385Z,7.03
2019-01-09T09:26:25.245Z,8.63
2019-01-09T09:28:53.754Z,11.03
2019-01-09T09:31:22.988Z,11.60
2019-01-09T09:33:51.647Z,19.60
2019-01-09T09:36:21.209Z,10.03
2019-01-09T09:38:49.792Z,7.63
2019-01-09T09:41:18.365Z,8.83
2019-01-09T09:43:46.934Z,10.50
2019-01-09T09:46:15.564Z,7.07
2019-01-09T09:48:44.086Z,11.47
2019-01-09T09:51:12.645Z,10.17
2019-01-09T09:53:41.633Z,14.37
2019-01-09T09:56:10.121Z,8.37
2019-01-09T09:58:38.633Z,14.60
2019-01-09T10:01:07.199Z,7.73
2019-01-09T10:03:35.802Z,10.53
2019-01-09T10:06:04.698Z,9.77
2019-01-09T10:08:33.298Z,9.83
2019-01-09T10:11:01.932Z,9.20
2019-01-09T10:13:30.514Z,13.73
2019-01-09T10:15:59.162Z,14.03
2019-01-09T10:18:28.823Z,10.73
2019-01-09T10:20:57.383Z,11.30
2019-01-09T10:23:26.942Z,11.23
2019-01-09T10:25:55.567Z,18.53
2019-01-09T10:28:24.157Z,8.67
2019-01-09T10:30:52.874Z,12.10
2019-01-09T10:33:21.530Z,14.83
2019-01-09T10:35:50.129Z,12.30
2019-01-09T10:38:18.639Z,7.53
2019-01-09T10:40:47.201Z,13.40
2019-01-09T10:43:15.753Z,5.93
2019-01-09T10:45:44.279Z,9.77
2019-01-09T10:48:12.833Z,7.50
2019-01-09T10:50:41.345Z,14.27
2019-01-09T10:53:09.989Z,13.23
2019-01-09T10:55:38.593Z,11.40
2019-01-09T10:58:07.161Z,9.20
2019-01-09T11:00:35.732Z,9.80
2019-01-09T11:03:04.478Z,13.10
2019-01-09T11:05:33.131Z,9.13
2019-01-09T11:08:01.777Z,8.07
2019-01-09T11:10:30.278Z,8.60
2019-01-09T11:12:58.765Z,5.60
2019-01-09T11:15:27.341Z,10.20
2019-01-09T11:17:55.930Z,7.83
2019-01-09T11:20:24.658Z,5.03
2019-01-09T11:22:53.213Z,12.23
2019-01-09T11:25:26.042Z,10.37
2019-01-09T11:27:54.655Z,6.57
2019-01-09T11:30:23.305Z,5.97
2019-01-09T11:32:51.926Z,8.37
2019-01-09T11:35:22.748Z,11.13
2019-01-09T11:37:53.031Z,7.60
2019-01-09T11:40:21.863Z,7.57
2019-01-09T11:42:50.456Z,7.93
2019-01-09T11:45:20.345Z,10.07
2019-01-09T11:47:49.182Z,7.33
2019-01-09T11:50:18.191Z,6.87
2019-01-09T11:52:46.827Z,8.90
2019-01-09T11:55:16.159Z,7.43
2019-01-09T11:57:45.037Z,12.10
2019-01-09T12:00:22.688Z,9.13
2019-01-09T12:02:51.331Z,12.23
2019-01-09T12:05:19.956Z,9.30
2019-01-09T12:07:49.648Z,9.30
2019-01-09T12:10:29.511Z,10.40
2019-01-09T12:12:50.486Z,11.73
2019-01-09T12:15:19.491Z,9.47
2019-01-09T12:17:48.167Z,16.30
2019-01-09T12:20:18.338Z,12.97
2019-01-09T12:22:47.563Z,7.23
2019-01-09T12:25:16.465Z,8.13
2019-01-09T12:27:45.252Z,11.57
2019-01-09T12:30:22.798Z,13.53
2019-01-09T12:32:51.420Z,10.80
2019-01-09T12:35:20.032Z,10.80
2019-01-09T12:37:48.860Z,8.70
2019-01-09T12:40:17.591Z,10.07
2019-01-09T12:42:46.156Z,7.60
2019-01-09T12:45:16.474Z,4.83
2019-01-09T12:47:45.064Z,11.67
2019-01-09T12:50:19.651Z,10.17
2019-01-09T12:52:48.365Z,7.37
2019-01-09T12:55:16.941Z,5.40
2019-01-09T12:57:47.071Z,8.23
2019-01-09T13:00:21.007Z,12.50
2019-01-09T13:02:49.611Z,11.03
2019-01-09T13:05:18.290Z,11.63
2019-01-09T13:07:48.045Z,8.33
2019-01-09T13:10:16.746Z,12.13
2019-01-09T13:12:45.369Z,6.60
2019-01-09T13:15:14.188Z,9.83
2019-01-09T13:17:42.765Z,5.80
2019-01-09T13:20:13.842Z,8.13
2019-01-09T13:22:42.471Z,7.17
2019-01-09T13:25:13.269Z,12.97
2019-01-09T13:27:41.980Z,15.33
2019-01-09T13:30:13.553Z,8.50
2019-01-09T13:32:42.288Z,10.53
2019-01-09T13:35:10.998Z,8.00
2019-01-09T13:37:39.667Z,8.10
2019-01-09T13:40:11.560Z,6.70
2019-01-09T13:42:40.181Z,9.10
2019-01-09T13:45:11.408Z,10.20
2019-01-09T13:47:40.035Z,12.27
2019-01-09T13:50:11.572Z,5.07
2019-01-09T13:52:40.120Z,9.37
2019-01-09T13:55:10.865Z,8.33
2019-01-09T13:57:39.354Z,6.37
2019-01-09T14:00:11.173Z,9.70
2019-01-09T14:02:39.812Z,10.10
2019-01-09T14:05:09.438Z,11.97
2019-01-09T14:07:37.984Z,8.50
2019-01-09T14:10:21.028Z,6.87
2019-01-09T14:12:49.587Z,8.83
2019-01-09T14:15:19.935Z,14.93
2019-01-09T14:17:50.399Z,10.53
2019-01-09T14:20:19.073Z,11.93
2019-01-09T14:22:47.753Z,5.93
2019-01-09T14:25:17.240Z,6.83
2019-01-09T14:27:45.813Z,9.67
2019-01-09T14:30:22.958Z,11.57
2019-01-09T14:32:51.519Z,6.97
2019-01-09T14:35:20.016Z,11.07
2019-01-09T14:37:48.570Z,13.93
2019-01-09T14:40:18.583Z,8.40
2019-01-09T14:42:47.141Z,13.70
2019-01-09T14:45:17.353Z,9.60
2019-01-09T14:47:45.915Z,13.37
2019-01-09T14:50:17.033Z,9.47
2019-01-09T14:52:45.595Z,8.07
2019-01-09T14:55:14.690Z,6.70
2019-01-09T14:57:43.632Z,12.40
2019-01-09T15:00:19.970Z,11.07
2019-01-09T15:02:48.490Z,8.80
2019-01-09T15:05:18.193Z,14.03
2019-01-09T15:07:46.937Z,6.93
2019-01-09T15:10:23.382Z,9.10
2019-01-09T15:12:52.418Z,10.50
2019-01-09T15:15:21.208Z,13.03
2019-01-09T15:17:49.782Z,7.93
2019-01-09T15:20:19.697Z,5.73
2019-01-09T15:22:48.382Z,8.00
2019-01-09T15:25:17.516Z,8.90
2019-01-09T15:27:46.173Z,6.87
2019-01-09T15:30:17.801Z,7.33
2019-01-09T15:32:46.377Z,8.47
2019-01-09T15:35:14.930Z,9.63
2019-01-09T15:37:43.663Z,8.07
2019-01-09T15:40:18.242Z,9.93
2019-01-09T15:42:46.960Z,9.30
2019-01-09T15:45:16.549Z,11.50
2019-01-09T15:47:45.135Z,11.17
2019-01-09T15:50:16.300Z,10.47
2019-01-09T15:52:44.873Z,8.43
2019-01-09T15:55:15.380Z,8.17
2019-01-09T15:57:44.903Z,8.13
2019-01-09T16:00:22.436Z,10.00
2019-01-09T16:02:51.082Z,10.93
2019-01-09T16:05:19.674Z,11.93
2019-01-09T16:07:48.348Z,9.73
2019-01-09T16:10:21.893Z,8.33
2019-01-09T16:12:50.459Z,11.27
2019-01-09T16:15:19.365Z,7.17
2019-01-09T16:17:48.089Z,9.40
2019-01-09T16:20:21.610Z,12.37
2019-01-09T16:22:50.165Z,11.53
2019-01-09T16:25:18.894Z,13.90
2019-01-09T16:27:47.516Z,11.70
2019-01-09T16:30:34.631Z,8.60
2019-01-09T16:33:03.381Z,16.47
2019-01-09T16:35:34.489Z,6.97
2019-01-09T16:38:03.050Z,8.30
2019-01-09T16:40:31.629Z,12.63
2019-01-09T16:43:00.190Z,10.27
2019-01-09T16:45:28.833Z,8.23
2019-01-09T16:47:57.390Z,11.87
2019-01-09T16:50:26.223Z,7.93
2019-01-09T16:52:54.764Z,7.43
2019-01-09T16:55:23.742Z,9.97
2019-01-09T16:57:52.313Z,8.93
2019-01-09T17:00:23.798Z,8.20
2019-01-09T17:02:52.394Z,11.03
2019-01-09T17:05:21.053Z,10.20
2019-01-09T17:07:50.173Z,11.30
2019-01-09T17:10:18.807Z,7.07
2019-01-09T17:12:47.380Z,11.40
2019-01-09T17:15:19.366Z,9.47
2019-01-09T17:17:48.195Z,6.23
2019-01-09T17:20:19.849Z,9.80
2019-01-09T17:22:48.521Z,7.07
2019-01-09T17:25:17.224Z,10.20
2019-01-09T17:27:45.806Z,12.47
2019-01-09T17:30:20.281Z,8.30
2019-01-09T17:32:49.116Z,13.13
2019-01-09T17:35:17.687Z,11.93
2019-01-09T17:37:46.338Z,12.63
2019-01-09T17:40:19.974Z,7.53
2019-01-09T17:42:48.917Z,11.63
2019-01-09T17:45:18.213Z,10.73
2019-01-09T17:47:47.227Z,9.27
2019-01-09T17:50:30.385Z,12.00
2019-01-09T17:52:59.059Z,8.03
2019-01-09T17:55:27.754Z,5.23
2019-01-09T17:57:56.494Z,16.90
2019-01-09T18:00:33.756Z,8.03
2019-01-09T18:03:02.573Z,7.90
2019-01-09T18:05:31.214Z,10.67
2019-01-09T18:07:59.939Z,10.77
2019-01-09T18:10:28.536Z,9.37
2019-01-09T18:12:57.243Z,6.77
2019-01-09T18:15:26.138Z,8.53
2019-01-09T18:17:54.714Z,6.43
2019-01-09T18:20:23.549Z,10.57
2019-01-09T18:22:52.202Z,7.93
2019-01-09T18:25:26.042Z,10.00
2019-01-09T18:27:54.759Z,11.50
2019-01-09T18:30:35.084Z,9.83
2019-01-09T18:33:15.719Z,8.00
2019-01-09T18:35:47.354Z,7.40
2019-01-09T18:38:21.755Z,7.07
2019-01-09T18:41:08.070Z,8.00
2019-01-09T18:44:06.700Z,8.50
2019-01-09T18:46:58.730Z,9.40
2019-01-09T18:49:32.789Z,14.40
2019-01-09T18:52:16.005Z,6.63
2019-01-09T18:54:44.669Z,7.43
2019-01-09T18:57:13.354Z,9.20
2019-01-09T18:59:41.952Z,7.37
2019-01-09T19:02:10.637Z,9.20
2019-01-09T19:04:40.167Z,4.70
2019-01-09T19:07:08.945Z,7.73
2019-01-09T19:09:37.670Z,9.07
2019-01-09T19:12:06.362Z,9.77
2019-01-09T19:14:35.057Z,5.93
2019-01-09T19:17:04.110Z,7.10
2019-01-09T19:19:32.665Z,8.27
2019-01-09T19:22:01.245Z,13.27
2019-01-09T19:24:29.813Z,11.80
2019-01-09T19:26:58.403Z,4.90
2019-01-09T19:29:27.100Z,9.43
2019-01-09T19:31:55.782Z,7.77
2019-01-09T19:34:24.340Z,8.20
2019-01-09T19:36:52.933Z,6.20
2019-01-09T19:39:21.486Z,12.40
2019-01-09T19:41:50.062Z,9.37
2019-01-09T19:44:18.573Z,8.13
2019-01-09T19:46:47.516Z,11.70
2019-01-09T19:49:16.091Z,9.57
2019-01-09T19:51:44.735Z,8.33
2019-01-09T19:54:13.354Z,8.50
2019-01-09T19:56:42.206Z,9.83
2019-01-09T19:59:10.907Z,10.27
2019-01-09T20:01:39.570Z,10.87
2019-01-09T20:04:08.183Z,9.93
2019-01-09T20:06:36.812Z,12.30
2019-01-09T20:09:07.404Z,9.47
2019-01-09T20:11:36.007Z,7.87
2019-01-09T20:14:04.823Z,6.40
2019-01-09T20:16:33.482Z,12.03
2019-01-09T20:19:02.139Z,13.60
2019-01-09T20:21:30.741Z,7.30
2019-01-09T20:23:59.318Z,7.67
2019-01-09T20:26:27.994Z,9.93
2019-01-09T20:28:56.626Z,14.47
2019-01-09T20:31:25.252Z,8.80
2019-01-09T20:33:53.856Z,9.07
2019-01-09T20:36:22.534Z,6.67
2019-01-09T20:38:51.290Z,9.10
2019-01-09T20:41:19.836Z,6.80
2019-01-09T20:43:48.433Z,9.57
2019-01-09T20:46:17.056Z,10.03
2019-01-09T20:48:45.731Z,7.43
2019-01-09T20:51:14.383Z,6.53
2019-01-09T20:53:43.066Z,13.93
2019-01-09T20:56:11.700Z,11.80
2019-01-09T20:58:40.444Z,5.67
2019-01-09T21:01:09.264Z,7.37
2019-01-09T21:03:37.945Z,7.00
2019-01-09T21:06:07.044Z,10.63
2019-01-09T21:08:35.626Z,9.30
2019-01-09T21:11:04.437Z,8.20
2019-01-09T21:13:33.087Z,8.00
2019-01-09T21:16:01.827Z,6.97
2019-01-09T21:18:30.336Z,11.90
2019-01-09T21:20:58.946Z,13.13
2019-01-09T21:23:27.514Z,5.27
2019-01-09T21:25:56.160Z,9.20
2019-01-09T21:28:24.703Z,10.13
2019-01-09T21:30:53.317Z,9.03
2019-01-09T21:33:21.979Z,6.70
2019-01-09T21:35:50.723Z,7.50
2019-01-09T21:38:19.354Z,7.37
2019-01-09T21:40:47.932Z,8.37
2019-01-09T21:43:16.441Z,8.00
2019-01-09T21:45:45.025Z,10.27
2019-01-09T21:48:13.654Z,9.07
2019-01-09T21:50:42.380Z,8.67
2019-01-09T21:53:11.030Z,13.93
2019-01-09T21:55:39.615Z,11.97
2019-01-09T21:58:08.181Z,14.93
2019-01-09T22:00:37.004Z,7.17
2019-01-09T22:03:05.557Z,6.93
2019-01-09T22:05:34.061Z,10.00
2019-01-09T22:08:02.725Z,10.63
2019-01-09T22:10:33.520Z,10.93
2019-01-09T22:13:02.124Z,12.00
2019-01-09T22:15:30.833Z,10.80
2019-01-09T22:17:59.411Z,5.63
2019-01-09T22:20:28.130Z,9.00
2019-01-09T22:22:56.994Z,9.87
2019-01-09T22:25:25.644Z,11.40
2019-01-09T22:27:54.298Z,10.13
2019-01-09T22:30:27.826Z,8.27
2019-01-09T22:32:56.478Z,11.40
2019-01-09T22:35:25.266Z,7.87
2019-01-09T22:37:53.944Z,9.20
2019-01-09T22:40:22.737Z,9.53
2019-01-09T22:42:51.332Z,10.43
2019-01-09T22:45:20.046Z,7.50
2019-01-09T22:47:48.779Z,11.07
2019-01-09T22:50:19.288Z,9.93
2019-01-09T22:52:48.069Z,11.13
2019-01-09T22:55:16.775Z,4.53
2019-01-09T22:57:45.426Z,11.03
2019-01-09T23:00:19.829Z,9.70
2019-01-09T23:02:48.401Z,8.63
2019-01-09T23:05:17.024Z,6.90
2019-01-09T23:07:46.806Z,7.53
2019-01-09T23:10:15.516Z,15.47
2019-01-09T23:12:44.106Z,5.77
2019-01-09T23:15:12.857Z,6.67
2019-01-09T23:17:41.337Z,6.23
2019-01-09T23:20:14.734Z,11.47
2019-01-09T23:22:43.459Z,5.57
2019-01-09T23:25:12.099Z,6.30
2019-01-09T23:27:40.742Z,9.53
2019-01-09T23:30:10.981Z,10.13
2019-01-09T23:32:39.715Z,7.43
2019-01-09T23:35:10.365Z,6.80
2019-01-09T23:37:38.914Z,8.17
2019-01-09T23:40:15.168Z,6.43
2019-01-09T23:42:44.062Z,6.10
2019-01-09T23:45:16.305Z,6.17
2019-01-09T23:47:44.948Z,10.73
2019-01-09T23:50:14.332Z,6.37
2019-01-09T23:52:43.069Z,3.77
2019-01-09T23:55:12.664Z,10.30
2019-01-09T23:57:41.291Z,5.27
